sensor_id;sensor_type;location;lat;lon;timestamp;pressure;altitude;pressure_sealevel;temperature;humidity
63090;BME280;49174;43.198;27.824;2023-04-26T00:01:55;100612.44;;;10.65;100.00
63090;BME280;49174;43.198;27.824;2023-04-26T00:04:22;100614.91;;;10.67;100.00
63090;BME280;49174;43.198;27.824;2023-04-26T00:06:48;100622.81;;;10.68;100.00
63090;BME280;49174;43.198;27.824;2023-04-26T00:09:15;100611.63;;;10.71;100.00
63090;BME280;49174;43.198;27.824;2023-04-26T00:11:43;100610.38;;;10.74;100.00
63090;BME280;49174;43.198;27.824;2023-04-26T00:14:08;100612.91;;;10.76;100.00
63090;BME280;49174;43.198;27.824;2023-04-26T00:16:34;100611.22;;;10.74;100.00
63090;BME280;49174;43.198;27.824;2023-04-26T00:19:00;100617.91;;;10.85;100.00
63090;BME280;49174;43.198;27.824;2023-04-26T00:21:26;100616.25;;;10.84;100.00
63090;BME280;49174;43.198;27.824;2023-04-26T00:23:52;100618.13;;;10.84;100.00
63090;BME280;49174;43.198;27.824;2023-04-26T00:26:18;100607.72;;;10.81;100.00
63090;BME280;49174;43.198;27.824;2023-04-26T00:28:44;100615.78;;;10.74;100.00
63090;BME280;49174;43.198;27.824;2023-04-26T00:31:14;100622.22;;;10.73;100.00
63090;BME280;49174;43.198;27.824;2023-04-26T00:33:39;100625.75;;;10.73;100.00
63090;BME280;49174;43.198;27.824;2023-04-26T00:36:05;100615.78;;;10.74;100.00
63090;BME280;49174;43.198;27.824;2023-04-26T00:38:31;100611.44;;;10.80;100.00
63090;BME280;49174;43.198;27.824;2023-04-26T00:40:56;100611.25;;;10.81;100.00
63090;BME280;49174;43.198;27.824;2023-04-26T00:43:22;100613.31;;;10.79;100.00
63090;BME280;49174;43.198;27.824;2023-04-26T00:45:48;100616.03;;;10.86;100.00
63090;BME280;49174;43.198;27.824;2023-04-26T00:48:14;100617.28;;;10.83;100.00
63090;BME280;49174;43.198;27.824;2023-04-26T00:50:40;100620.19;;;10.82;100.00
63090;BME280;49174;43.198;27.824;2023-04-26T00:53:07;100601.28;;;10.82;100.00
63090;BME280;49174;43.198;27.824;2023-04-26T00:55:33;100613.75;;;10.83;100.00
63090;BME280;49174;43.198;27.824;2023-04-26T00:57:59;100595.91;;;10.82;100.00
63090;BME280;49174;43.198;27.824;2023-04-26T01:00:25;100603.34;;;10.80;100.00
63090;BME280;49174;43.198;27.824;2023-04-26T01:02:50;100606.06;;;10.80;100.00
63090;BME280;49174;43.198;27.824;2023-04-26T01:05:16;100605.22;;;10.79;100.00
63090;BME280;49174;43.198;27.824;2023-04-26T01:07:42;100606.06;;;10.80;100.00
63090;BME280;49174;43.198;27.824;2023-04-26T01:10:08;100606.06;;;10.80;100.00
63090;BME280;49174;43.198;27.824;2023-04-26T01:12:34;100607.53;;;10.82;100.00
63090;BME280;49174;43.198;27.824;2023-04-26T01:15:01;100609.59;;;10.80;100.00
63090;BME280;49174;43.198;27.824;2023-04-26T01:17:27;100602.75;;;10.84;100.00
63090;BME280;49174;43.198;27.824;2023-04-26T01:19:53;100602.13;;;10.89;100.00
63090;BME280;49174;43.198;27.824;2023-04-26T01:22:19;100598.41;;;10.90;100.00
63090;BME280;49174;43.198;27.824;2023-04-26T01:24:50;100595.50;;;10.85;100.00
63090;BME280;49174;43.198;27.824;2023-04-26T01:27:16;100592.97;;;10.83;100.00
63090;BME280;49174;43.198;27.824;2023-04-26T01:29:42;100600.03;;;10.78;100.00
63090;BME280;49174;43.198;27.824;2023-04-26T01:32:07;100602.09;;;10.76;100.00
63090;BME280;49174;43.198;27.824;2023-04-26T01:34:33;100597.94;;;10.73;100.00
63090;BME280;49174;43.198;27.824;2023-04-26T01:36:59;100596.47;;;10.70;100.00
63090;BME280;49174;43.198;27.824;2023-04-26T01:39:25;100585.03;;;10.68;100.00
63090;BME280;49174;43.198;27.824;2023-04-26T01:41:52;100589.81;;;10.66;100.00
63090;BME280;49174;43.198;27.824;2023-04-26T01:44:18;100583.16;;;10.62;100.00
63090;BME280;49174;43.198;27.824;2023-04-26T01:46:43;100585.19;;;10.54;100.00
63090;BME280;49174;43.198;27.824;2023-04-26T01:49:09;100586.19;;;10.46;100.00
63090;BME280;49174;43.198;27.824;2023-04-26T01:51:34;100584.91;;;10.42;100.00
63090;BME280;49174;43.198;27.824;2023-04-26T01:54:00;100577.63;;;10.36;100.00
63090;BME280;49174;43.198;27.824;2023-04-26T01:56:26;100579.47;;;10.28;100.00
63090;BME280;49174;43.198;27.824;2023-04-26T01:58:51;100582.53;;;10.25;100.00
63090;BME280;49174;43.198;27.824;2023-04-26T02:01:17;100580.22;;;10.22;100.00
63090;BME280;49174;43.198;27.824;2023-04-26T02:03:42;100581.25;;;10.21;100.00
63090;BME280;49174;43.198;27.824;2023-04-26T02:06:08;100577.53;;;10.22;100.00
63090;BME280;49174;43.198;27.824;2023-04-26T02:08:34;100570.28;;;10.23;100.00
63090;BME280;49174;43.198;27.824;2023-04-26T02:11:01;100575.66;;;10.23;100.00
63090;BME280;49174;43.198;27.824;2023-04-26T02:13:26;100570.63;;;10.13;100.00
63090;BME280;49174;43.198;27.824;2023-04-26T02:15:52;100580.53;;;10.06;100.00
63090;BME280;49174;43.198;27.824;2023-04-26T02:18:17;100582.59;;;10.04;100.00
63090;BME280;49174;43.198;27.824;2023-04-26T02:20:46;100575.91;;;10.00;100.00
63090;BME280;49174;43.198;27.824;2023-04-26T02:23:11;100579.00;;;9.97;100.00
63090;BME280;49174;43.198;27.824;2023-04-26T02:25:38;100581.91;;;9.95;100.00
63090;BME280;49174;43.198;27.824;2023-04-26T02:28:04;100580.44;;;9.93;100.00
63090;BME280;49174;43.198;27.824;2023-04-26T02:30:30;100580.44;;;9.93;100.00
63090;BME280;49174;43.198;27.824;2023-04-26T02:32:56;100580.03;;;9.89;100.00
63090;BME280;49174;43.198;27.824;2023-04-26T02:35:22;100578.34;;;9.88;100.00
63090;BME280;49174;43.198;27.824;2023-04-26T02:37:48;100578.28;;;9.81;100.00
63090;BME280;49174;43.198;27.824;2023-04-26T02:40:19;100574.53;;;9.76;100.00
63090;BME280;49174;43.198;27.824;2023-04-26T02:42:45;100584.88;;;9.72;100.00
63090;BME280;49174;43.198;27.824;2023-04-26T02:45:10;100581.91;;;9.67;100.00
63090;BME280;49174;43.198;27.824;2023-04-26T02:47:36;100588.97;;;9.68;100.00
63090;BME280;49174;43.198;27.824;2023-04-26T02:50:06;100587.31;;;9.67;100.00
63090;BME280;49174;43.198;27.824;2023-04-26T02:52:36;100580.19;;;9.59;100.00
63090;BME280;49174;43.198;27.824;2023-04-26T02:55:03;100580.84;;;9.61;100.00
63090;BME280;49174;43.198;27.824;2023-04-26T02:57:29;100570.44;;;9.58;100.00
63090;BME280;49174;43.198;27.824;2023-04-26T02:59:56;100573.16;;;9.58;100.00
63090;BME280;49174;43.198;27.824;2023-04-26T03:02:22;100574.97;;;9.58;100.00
63090;BME280;49174;43.198;27.824;2023-04-26T03:04:47;100582.06;;;9.59;100.00
63090;BME280;49174;43.198;27.824;2023-04-26T03:07:13;100573.50;;;9.55;100.00
63090;BME280;49174;43.198;27.824;2023-04-26T03:09:39;100573.91;;;9.52;100.00
63090;BME280;49174;43.198;27.824;2023-04-26T03:12:08;100569.13;;;9.48;100.00
63090;BME280;49174;43.198;27.824;2023-04-26T03:14:34;100561.91;;;9.55;100.00
63090;BME280;49174;43.198;27.824;2023-04-26T03:17:00;100566.47;;;9.54;100.00
63090;BME280;49174;43.198;27.824;2023-04-26T03:19:26;100570.25;;;9.60;100.00
63090;BME280;49174;43.198;27.824;2023-04-26T03:21:53;100565.06;;;9.58;100.00
63090;BME280;49174;43.198;27.824;2023-04-26T03:24:18;100571.03;;;9.54;100.00
63090;BME280;49174;43.198;27.824;2023-04-26T03:26:44;100577.25;;;9.54;100.00
63090;BME280;49174;43.198;27.824;2023-04-26T03:29:09;100574.81;;;9.59;100.00
63090;BME280;49174;43.198;27.824;2023-04-26T03:31:36;100574.59;;;9.61;100.00
63090;BME280;49174;43.198;27.824;2023-04-26T03:34:03;100580.22;;;9.66;100.00
63090;BME280;49174;43.198;27.824;2023-04-26T03:36:29;100581.13;;;9.73;100.00
63090;BME280;49174;43.198;27.824;2023-04-26T03:38:55;100576.59;;;9.80;100.00
63090;BME280;49174;43.198;27.824;2023-04-26T03:41:21;100575.16;;;9.78;100.00
63090;BME280;49174;43.198;27.824;2023-04-26T03:43:47;100573.09;;;9.80;100.00
63090;BME280;49174;43.198;27.824;2023-04-26T03:46:12;100580.84;;;9.90;100.00
63090;BME280;49174;43.198;27.824;2023-04-26T03:48:38;100576.72;;;9.94;100.00
63090;BME280;49174;43.198;27.824;2023-04-26T03:51:04;100584.66;;;10.02;100.00
63090;BME280;49174;43.198;27.824;2023-04-26T03:53:30;100584.00;;;10.00;100.00
63090;BME280;49174;43.198;27.824;2023-04-26T03:55:55;100583.63;;;10.03;100.00
63090;BME280;49174;43.198;27.824;2023-04-26T03:58:23;100578.00;;;9.98;100.00
63090;BME280;49174;43.198;27.824;2023-04-26T04:00:49;100580.94;;;10.03;100.00
63090;BME280;49174;43.198;27.824;2023-04-26T04:03:15;100573.94;;;10.09;100.00
63090;BME280;49174;43.198;27.824;2023-04-26T04:05:40;100580.41;;;10.14;100.00
63090;BME280;49174;43.198;27.824;2023-04-26T04:08:05;100577.91;;;10.19;100.00
63090;BME280;49174;43.198;27.824;2023-04-26T04:10:31;100580.84;;;10.24;100.00
63090;BME280;49174;43.198;27.824;2023-04-26T04:12:56;100588.94;;;10.24;100.00
63090;BME280;49174;43.198;27.824;2023-04-26T04:15:22;100581.50;;;10.26;100.00
63090;BME280;49174;43.198;27.824;2023-04-26T04:17:47;100584.47;;;10.38;100.00
63090;BME280;49174;43.198;27.824;2023-04-26T04:20:13;100590.31;;;10.42;100.00
63090;BME280;49174;43.198;27.824;2023-04-26T04:22:39;100593.84;;;10.42;100.00
63090;BME280;49174;43.198;27.824;2023-04-26T04:25:06;100587.25;;;10.51;100.00
63090;BME280;49174;43.198;27.824;2023-04-26T04:27:33;100591.25;;;10.62;100.00
63090;BME280;49174;43.198;27.824;2023-04-26T04:29:59;100596.66;;;10.62;100.00
63090;BME280;49174;43.198;27.824;2023-04-26T04:32:28;100596.25;;;10.72;100.00
63090;BME280;49174;43.198;27.824;2023-04-26T04:34:53;100588.44;;;10.84;100.00
63090;BME280;49174;43.198;27.824;2023-04-26T04:37:19;100592.41;;;10.94;100.00
63090;BME280;49174;43.198;27.824;2023-04-26T04:39:45;100595.97;;;11.02;100.00
63090;BME280;49174;43.198;27.824;2023-04-26T04:42:11;100599.66;;;10.94;100.00
63090;BME280;49174;43.198;27.824;2023-04-26T04:44:37;100596.78;;;11.02;100.00
63090;BME280;49174;43.198;27.824;2023-04-26T04:47:02;100588.91;;;11.07;100.00
63090;BME280;49174;43.198;27.824;2023-04-26T04:49:28;100593.91;;;11.17;100.00
63090;BME280;49174;43.198;27.824;2023-04-26T04:51:54;100598.28;;;11.25;100.00
63090;BME280;49174;43.198;27.824;2023-04-26T04:54:32;100592.50;;;11.34;100.00
63090;BME280;49174;43.198;27.824;2023-04-26T04:56:58;100599.38;;;11.37;100.00
63090;BME280;49174;43.198;27.824;2023-04-26T04:59:26;100601.88;;;11.45;100.00
63090;BME280;49174;43.198;27.824;2023-04-26T05:01:53;100599.16;;;11.52;100.00
63090;BME280;49174;43.198;27.824;2023-04-26T05:04:20;100601.03;;;11.51;100.00
63090;BME280;49174;43.198;27.824;2023-04-26T05:06:46;100598.97;;;11.53;100.00
63090;BME280;49174;43.198;27.824;2023-04-26T05:09:11;100599.78;;;11.60;100.00
63090;BME280;49174;43.198;27.824;2023-04-26T05:11:37;100596.69;;;11.77;100.00
63090;BME280;49174;43.198;27.824;2023-04-26T05:14:02;100598.97;;;11.80;100.00
63090;BME280;49174;43.198;27.824;2023-04-26T05:16:28;100594.63;;;11.79;100.00
63090;BME280;49174;43.198;27.824;2023-04-26T05:18:53;100600.22;;;11.84;100.00
63090;BME280;49174;43.198;27.824;2023-04-26T05:21:20;100605.88;;;11.96;100.00
63090;BME280;49174;43.198;27.824;2023-04-26T05:23:46;100605.22;;;12.00;100.00
63090;BME280;49174;43.198;27.824;2023-04-26T05:26:14;100605.22;;;11.94;100.00
63090;BME280;49174;43.198;27.824;2023-04-26T05:28:39;100602.50;;;12.00;100.00
63090;BME280;49174;43.198;27.824;2023-04-26T05:31:05;100601.06;;;12.04;100.00
63090;BME280;49174;43.198;27.824;2023-04-26T05:33:31;100611.03;;;12.11;100.00
63090;BME280;49174;43.198;27.824;2023-04-26T05:35:56;100605.22;;;12.07;100.00
63090;BME280;49174;43.198;27.824;2023-04-26T05:38:23;100612.31;;;12.01;100.00
63090;BME280;49174;43.198;27.824;2023-04-26T05:40:49;100612.31;;;11.88;100.00
63090;BME280;49174;43.198;27.824;2023-04-26T05:43:15;100616.88;;;11.94;100.00
63090;BME280;49174;43.198;27.824;2023-04-26T05:45:52;100615.59;;;12.03;100.00
63090;BME280;49174;43.198;27.824;2023-04-26T05:48:19;100623.94;;;12.08;100.00
63090;BME280;49174;43.198;27.824;2023-04-26T05:50:45;100618.94;;;12.05;100.00
63090;BME280;49174;43.198;27.824;2023-04-26T05:53:11;100620.63;;;12.06;100.00
63090;BME280;49174;43.198;27.824;2023-04-26T05:55:36;100622.28;;;12.07;100.00
63090;BME280;49174;43.198;27.824;2023-04-26T05:58:02;100626.84;;;12.07;100.00
63090;BME280;49174;43.198;27.824;2023-04-26T06:00:27;100634.75;;;12.08;100.00
63090;BME280;49174;43.198;27.824;2023-04-26T06:02:53;100633.06;;;12.14;100.00
63090;BME280;49174;43.198;27.824;2023-04-26T06:05:18;100627.47;;;12.16;100.00
63090;BME280;49174;43.198;27.824;2023-04-26T06:07:44;100639.72;;;12.25;100.00
63090;BME280;49174;43.198;27.824;2023-04-26T06:10:10;100641.19;;;12.27;100.00
63090;BME280;49174;43.198;27.824;2023-04-26T06:12:37;100639.31;;;12.35;100.00
63090;BME280;49174;43.198;27.824;2023-04-26T06:15:02;100639.09;;;12.43;100.00
63090;BME280;49174;43.198;27.824;2023-04-26T06:17:28;100640.72;;;12.50;100.00
63090;BME280;49174;43.198;27.824;2023-04-26T06:19:53;100639.25;;;12.55;100.00
63090;BME280;49174;43.198;27.824;2023-04-26T06:22:19;100638.19;;;12.56;100.00
63090;BME280;49174;43.198;27.824;2023-04-26T06:24:45;100643.00;;;12.60;100.00
63090;BME280;49174;43.198;27.824;2023-04-26T06:27:11;100635.94;;;12.59;100.00
63090;BME280;49174;43.198;27.824;2023-04-26T06:29:36;100644.25;;;12.58;100.00
63090;BME280;49174;43.198;27.824;2023-04-26T06:32:02;100638.00;;;12.57;100.00
63090;BME280;49174;43.198;27.824;2023-04-26T06:34:27;100650.50;;;12.51;100.00
63090;BME280;49174;43.198;27.824;2023-04-26T06:36:53;100646.56;;;12.54;100.00
63090;BME280;49174;43.198;27.824;2023-04-26T06:39:20;100637.97;;;12.64;100.00
63090;BME280;49174;43.198;27.824;2023-04-26T06:41:46;100643.38;;;12.70;100.00
63090;BME280;49174;43.198;27.824;2023-04-26T06:44:11;100650.41;;;12.85;100.00
63090;BME280;49174;43.198;27.824;2023-04-26T06:46:37;100647.28;;;12.88;100.00
63090;BME280;49174;43.198;27.824;2023-04-26T06:49:02;100651.44;;;12.90;100.00
63090;BME280;49174;43.198;27.824;2023-04-26T06:51:28;100652.69;;;12.88;100.00
63090;BME280;49174;43.198;27.824;2023-04-26T06:53:54;100651.44;;;12.90;100.00
63090;BME280;49174;43.198;27.824;2023-04-26T06:56:21;100647.03;;;12.96;100.00
63090;BME280;49174;43.198;27.824;2023-04-26T06:58:59;100654.34;;;12.95;100.00
63090;BME280;49174;43.198;27.824;2023-04-26T07:01:26;100653.03;;;12.98;100.00
63090;BME280;49174;43.198;27.824;2023-04-26T07:03:54;100653.44;;;13.08;100.00
63090;BME280;49174;43.198;27.824;2023-04-26T07:06:21;100654.84;;;13.17;100.00
63090;BME280;49174;43.198;27.824;2023-04-26T07:08:47;100654.41;;;13.27;100.00
63090;BME280;49174;43.198;27.824;2023-04-26T07:11:12;100650.22;;;13.31;100.00
63090;BME280;49174;43.198;27.824;2023-04-26T07:13:38;100657.31;;;13.32;100.00
63090;BME280;49174;43.198;27.824;2023-04-26T07:16:03;100654.59;;;13.32;100.00
63090;BME280;49174;43.198;27.824;2023-04-26T07:18:29;100657.66;;;13.43;100.00
63090;BME280;49174;43.198;27.824;2023-04-26T07:20:55;100656.34;;;13.52;100.00
63090;BME280;49174;43.198;27.824;2023-04-26T07:23:21;100657.56;;;13.56;100.00
63090;BME280;49174;43.198;27.824;2023-04-26T07:25:46;100662.56;;;13.59;100.00
63090;BME280;49174;43.198;27.824;2023-04-26T07:28:12;100657.47;;;13.69;100.00
63090;BME280;49174;43.198;27.824;2023-04-26T07:30:37;100649.84;;;13.84;100.00
63090;BME280;49174;43.198;27.824;2023-04-26T07:33:03;100658.13;;;13.96;100.00
63090;BME280;49174;43.198;27.824;2023-04-26T07:35:28;100654.00;;;14.12;100.00
63090;BME280;49174;43.198;27.824;2023-04-26T07:37:54;100655.56;;;14.26;100.00
63090;BME280;49174;43.198;27.824;2023-04-26T07:40:20;100658.53;;;14.43;100.00
63090;BME280;49174;43.198;27.824;2023-04-26T07:42:47;100659.28;;;14.50;100.00
63090;BME280;49174;43.198;27.824;2023-04-26T07:45:12;100651.56;;;14.72;100.00
63090;BME280;49174;43.198;27.824;2023-04-26T07:47:38;100652.00;;;14.88;100.00
63090;BME280;49174;43.198;27.824;2023-04-26T07:50:04;100651.38;;;15.04;100.00
63090;BME280;49174;43.198;27.824;2023-04-26T07:52:29;100655.34;;;15.20;100.00
63090;BME280;49174;43.198;27.824;2023-04-26T07:54:55;100657.78;;;15.40;100.00
63090;BME280;49174;43.198;27.824;2023-04-26T07:57:21;100659.72;;;15.51;100.00
63090;BME280;49174;43.198;27.824;2023-04-26T07:59:46;100655.22;;;15.45;91.65
63090;BME280;49174;43.198;27.824;2023-04-26T08:02:12;100655.13;;;15.52;90.72
63090;BME280;49174;43.198;27.824;2023-04-26T08:04:37;100658.69;;;15.52;88.15
63090;BME280;49174;43.198;27.824;2023-04-26T08:07:03;100654.09;;;15.64;94.26
63090;BME280;49174;43.198;27.824;2023-04-26T08:09:31;100651.38;;;15.64;88.67
63090;BME280;49174;43.198;27.824;2023-04-26T08:11:57;100655.75;;;15.65;88.65
63090;BME280;49174;43.198;27.824;2023-04-26T08:14:22;100650.41;;;15.59;86.72
63090;BME280;49174;43.198;27.824;2023-04-26T08:16:48;100648.63;;;15.53;87.87
63090;BME280;49174;43.198;27.824;2023-04-26T08:19:13;100640.34;;;15.59;91.03
63090;BME280;49174;43.198;27.824;2023-04-26T08:21:39;100653.94;;;15.78;92.84
63090;BME280;49174;43.198;27.824;2023-04-26T08:24:04;100647.91;;;15.88;90.25
63090;BME280;49174;43.198;27.824;2023-04-26T08:26:30;100646.03;;;15.88;88.33
63090;BME280;49174;43.198;27.824;2023-04-26T08:28:56;100644.47;;;15.92;86.36
63090;BME280;49174;43.198;27.824;2023-04-26T08:31:21;100647.94;;;15.99;86.79
63090;BME280;49174;43.198;27.824;2023-04-26T08:33:47;100643.91;;;16.02;87.42
63090;BME280;49174;43.198;27.824;2023-04-26T08:36:14;100637.06;;;16.11;90.44
63090;BME280;49174;43.198;27.824;2023-04-26T08:38:40;100635.16;;;16.23;83.39
63090;BME280;49174;43.198;27.824;2023-04-26T08:41:08;100641.06;;;16.20;83.76
63090;BME280;49174;43.198;27.824;2023-04-26T08:43:38;100641.88;;;16.21;87.15
63090;BME280;49174;43.198;27.824;2023-04-26T08:46:06;100640.50;;;16.30;83.11
63090;BME280;49174;43.198;27.824;2023-04-26T08:48:35;100634.91;;;16.37;81.50
63090;BME280;49174;43.198;27.824;2023-04-26T08:51:01;100635.25;;;16.40;83.06
63090;BME280;49174;43.198;27.824;2023-04-26T08:53:28;100642.03;;;16.49;84.29
63090;BME280;49174;43.198;27.824;2023-04-26T08:55:56;100635.47;;;16.62;84.80
63090;BME280;49174;43.198;27.824;2023-04-26T08:58:22;100635.47;;;16.62;81.77
63090;BME280;49174;43.198;27.824;2023-04-26T09:00:49;100631.81;;;16.57;81.56
63090;BME280;49174;43.198;27.824;2023-04-26T09:03:14;100641.06;;;16.56;82.30
63090;BME280;49174;43.198;27.824;2023-04-26T09:05:41;100641.75;;;16.51;82.69
63090;BME280;49174;43.198;27.824;2023-04-26T09:08:15;100640.22;;;16.43;83.70
63090;BME280;49174;43.198;27.824;2023-04-26T09:10:41;100648.16;;;16.45;84.29
63090;BME280;49174;43.198;27.824;2023-04-26T09:13:07;100639.88;;;16.51;86.72
63090;BME280;49174;43.198;27.824;2023-04-26T09:15:32;100647.94;;;16.58;83.59
63090;BME280;49174;43.198;27.824;2023-04-26T09:18:15;100643.66;;;16.62;84.16
63090;BME280;49174;43.198;27.824;2023-04-26T09:20:43;100644.25;;;16.64;84.54
63090;BME280;49174;43.198;27.824;2023-04-26T09:23:09;100651.34;;;16.53;87.72
63090;BME280;49174;43.198;27.824;2023-04-26T09:25:36;100643.41;;;16.64;90.44
63090;BME280;49174;43.198;27.824;2023-04-26T09:28:03;100649.56;;;16.59;87.27
63090;BME280;49174;43.198;27.824;2023-04-26T09:30:29;100646.84;;;16.59;87.12
63090;BME280;49174;43.198;27.824;2023-04-26T09:32:57;100649.81;;;16.58;87.90
63090;BME280;49174;43.198;27.824;2023-04-26T09:40:24;100650.88;;;16.09;80.95
63090;BME280;49174;43.198;27.824;2023-04-26T09:43:09;100647.28;;;15.74;82.19
63090;BME280;49174;43.198;27.824;2023-04-26T09:45:45;100642.09;;;15.84;87.88
63090;BME280;49174;43.198;27.824;2023-04-26T09:48:18;100650.72;;;15.69;81.76
63090;BME280;49174;43.198;27.824;2023-04-26T09:50:46;100632.84;;;15.73;88.18
63090;BME280;49174;43.198;27.824;2023-04-26T09:53:35;100641.75;;;15.92;87.06
63090;BME280;49174;43.198;27.824;2023-04-26T09:56:15;100635.50;;;15.80;87.70
63090;BME280;49174;43.198;27.824;2023-04-26T10:01:16;100635.97;;;15.77;83.74
63090;BME280;49174;43.198;27.824;2023-04-26T10:03:42;100637.28;;;15.56;82.54
63090;BME280;49174;43.198;27.824;2023-04-26T10:06:08;100639.38;;;15.42;82.74
63090;BME280;49174;43.198;27.824;2023-04-26T10:08:35;100633.00;;;15.48;85.41
63090;BME280;49174;43.198;27.824;2023-04-26T10:11:02;100638.72;;;15.58;82.97
63090;BME280;49174;43.198;27.824;2023-04-26T10:13:31;100633.09;;;15.41;82.75
63090;BME280;49174;43.198;27.824;2023-04-26T10:15:58;100627.88;;;15.40;84.92
63090;BME280;49174;43.198;27.824;2023-04-26T10:18:24;100630.22;;;15.67;90.13
63090;BME280;49174;43.198;27.824;2023-04-26T10:20:51;100634.19;;;15.82;85.99
63090;BME280;49174;43.198;27.824;2023-04-26T10:23:19;100622.50;;;15.94;84.95
63090;BME280;49174;43.198;27.824;2023-04-26T10:25:46;100621.78;;;15.98;84.41
63090;BME280;49174;43.198;27.824;2023-04-26T10:28:12;100618.94;;;16.17;87.05
63090;BME280;49174;43.198;27.824;2023-04-26T10:30:57;100629.22;;;15.91;80.56
63090;BME280;49174;43.198;27.824;2023-04-26T10:33:24;100620.69;;;15.88;86.93
63090;BME280;49174;43.198;27.824;2023-04-26T10:36:00;100621.78;;;16.22;88.95
63090;BME280;49174;43.198;27.824;2023-04-26T10:38:26;100622.47;;;16.52;85.46
63090;BME280;49174;43.198;27.824;2023-04-26T10:40:52;100626.38;;;16.80;85.27
63090;BME280;49174;43.198;27.824;2023-04-26T10:45:45;100618.59;;;17.01;80.45
63090;BME280;49174;43.198;27.824;2023-04-26T10:48:30;100628.19;;;17.32;82.84
63090;BME280;49174;43.198;27.824;2023-04-26T10:56:10;100626.50;;;17.76;78.43
63090;BME280;49174;43.198;27.824;2023-04-26T10:58:39;100623.06;;;17.98;75.05
63090;BME280;49174;43.198;27.824;2023-04-26T11:03:39;100618.28;;;18.44;72.51
63090;BME280;49174;43.198;27.824;2023-04-26T11:06:06;100617.69;;;18.59;69.74
63090;BME280;49174;43.198;27.824;2023-04-26T11:08:33;100618.56;;;18.25;73.02
63090;BME280;49174;43.198;27.824;2023-04-26T11:13:31;100619.06;;;18.39;75.34
63090;BME280;49174;43.198;27.824;2023-04-26T11:16:03;100619.78;;;18.35;66.67
63090;BME280;49174;43.198;27.824;2023-04-26T11:18:30;100627.53;;;18.04;69.95
63090;BME280;49174;43.198;27.824;2023-04-26T11:20:57;100621.06;;;17.93;71.93
63090;BME280;49174;43.198;27.824;2023-04-26T11:23:23;100629.34;;;17.36;70.02
63090;BME280;49174;43.198;27.824;2023-04-26T11:25:49;100625.25;;;17.22;73.44
63090;BME280;49174;43.198;27.824;2023-04-26T11:28:15;100631.38;;;17.29;73.68
63090;BME280;49174;43.198;27.824;2023-04-26T11:30:41;100620.41;;;17.40;74.93
63090;BME280;49174;43.198;27.824;2023-04-26T11:33:18;100619.22;;;17.65;77.92
63090;BME280;49174;43.198;27.824;2023-04-26T11:35:54;100616.25;;;17.67;73.56
63090;BME280;49174;43.198;27.824;2023-04-26T11:38:21;100616.69;;;17.47;76.36
63090;BME280;49174;43.198;27.824;2023-04-26T11:41:01;100611.94;;;17.08;71.85
63090;BME280;49174;43.198;27.824;2023-04-26T11:43:35;100618.56;;;17.29;78.88
63090;BME280;49174;43.198;27.824;2023-04-26T11:46:01;100617.06;;;17.67;73.63
63090;BME280;49174;43.198;27.824;2023-04-26T11:48:28;100610.41;;;17.92;70.11
63090;BME280;49174;43.198;27.824;2023-04-26T11:50:57;100607.09;;;18.06;73.25
63090;BME280;49174;43.198;27.824;2023-04-26T11:53:34;100609.63;;;18.13;66.16
63090;BME280;49174;43.198;27.824;2023-04-26T11:56:00;100613.13;;;18.08;68.21
63090;BME280;49174;43.198;27.824;2023-04-26T11:58:26;100610.50;;;18.14;65.52
63090;BME280;49174;43.198;27.824;2023-04-26T12:00:59;100609.09;;;18.11;72.29
63090;BME280;49174;43.198;27.824;2023-04-26T12:03:33;100617.41;;;18.21;73.26
63090;BME280;49174;43.198;27.824;2023-04-26T12:06:04;100614.13;;;18.19;73.69
63090;BME280;49174;43.198;27.824;2023-04-26T12:08:31;100616.22;;;17.33;74.08
63090;BME280;49174;43.198;27.824;2023-04-26T12:11:01;100606.00;;;16.59;78.73
63090;BME280;49174;43.198;27.824;2023-04-26T12:13:27;100607.19;;;16.51;79.89
63090;BME280;49174;43.198;27.824;2023-04-26T12:15:53;100606.94;;;16.65;82.15
63090;BME280;49174;43.198;27.824;2023-04-26T12:18:19;100614.97;;;16.83;79.03
63090;BME280;49174;43.198;27.824;2023-04-26T12:20:46;100612.00;;;16.85;79.74
63090;BME280;49174;43.198;27.824;2023-04-26T12:23:12;100615.28;;;16.98;78.98
63090;BME280;49174;43.198;27.824;2023-04-26T12:25:39;100608.50;;;17.01;77.71
63090;BME280;49174;43.198;27.824;2023-04-26T12:28:08;100611.16;;;16.84;77.78
63090;BME280;49174;43.198;27.824;2023-04-26T12:30:37;100601.25;;;16.78;79.06
63090;BME280;49174;43.198;27.824;2023-04-26T12:33:03;100598.19;;;16.51;76.79
63090;BME280;49174;43.198;27.824;2023-04-26T12:35:30;100602.00;;;16.26;80.79
63090;BME280;49174;43.198;27.824;2023-04-26T12:37:56;100593.06;;;16.54;82.82
63090;BME280;49174;43.198;27.824;2023-04-26T12:40:25;100593.19;;;16.83;80.54
63090;BME280;49174;43.198;27.824;2023-04-26T12:42:51;100609.28;;;16.85;76.58
63090;BME280;49174;43.198;27.824;2023-04-26T12:45:18;100603.59;;;16.74;79.39
63090;BME280;49174;43.198;27.824;2023-04-26T12:47:44;100604.03;;;16.95;79.24
63090;BME280;49174;43.198;27.824;2023-04-26T12:50:11;100604.19;;;17.17;77.68
63090;BME280;49174;43.198;27.824;2023-04-26T12:52:41;100597.88;;;17.45;77.28
63090;BME280;49174;43.198;27.824;2023-04-26T12:55:12;100594.97;;;17.80;74.84